Time;durP1;ratioP1;P1;durP2;ratioP2;P2;SDS_P1;SDS_P2;PMS_P1;PMS_P2;Temp;Humidity;BMP_temperature;BMP_pressure;BME280_temperature;BME280_humidity;BME280_pressure;Samples;Min_cycle;Max_cycle;Signal;HPM_P1;HPM_P2
2022/05/16 00:02:12;;;;;;;;;;;;;;;18.75;41.89;101720.41;5004559;28;101247;-65
2022/05/16 00:04:41;;;;;;;;;;;;;;;18.67;42.15;101718.16;4998804;28;96837;-65
2022/05/16 00:07:11;;;;;;;;;;;;;;;18.68;42.17;101717.22;5003354;28;99001;-71
2022/05/16 00:09:37;;;;;;;;;;;;;;;18.64;42.25;101710.31;5003813;28;102383;-72
2022/05/16 00:12:04;;;;;;;;;;;;;;;18.40;42.67;101715.09;5001441;28;99353;-72
2022/05/16 00:14:30;;;;;;;;;;;;;;;18.60;42.31;101714.06;5006640;28;97614;-71
2022/05/16 00:16:57;;;;;;;;;;;;;;;18.19;43.15;101711.72;5000668;28;97267;-71
2022/05/16 00:19:23;;;;;;;;;;;;;;;18.20;43.39;101716.13;5001847;28;99051;-71
2022/05/16 00:21:50;;;;;;;;;;;;;;;18.36;42.90;101718.91;5001225;28;98859;-72
2022/05/16 00:24:18;;;;;;;;;;;;;;;18.37;42.91;101714.41;5001857;28;97450;-66
2022/05/16 00:26:44;;;;;;;;;;;;;;;18.10;43.51;101724.72;4999036;28;97653;-66
2022/05/16 00:29:11;;;;;;;;;;;;;;;18.56;42.44;101726.78;5006283;28;98842;-67
2022/05/16 00:31:37;;;;;;;;;;;;;;;18.38;42.64;101730.34;5002800;28;98085;-67
2022/05/16 00:34:03;;;;;;;;;;;;;;;18.03;43.56;101718.84;5008328;28;96950;-67
2022/05/16 00:36:29;;;;;;;;;;;;;;;18.10;43.57;101720.25;5009716;28;99213;-66
2022/05/16 00:39:04;;;;;;;;;;;;;;;18.04;43.67;101715.22;5006757;28;98975;-67
2022/05/16 00:41:30;;;;;;;;;;;;;;;18.36;42.87;101715.34;5001550;28;101295;-66
2022/05/16 00:43:58;;;;;;;;;;;;;;;18.52;42.70;101711.78;5002174;28;97165;-66
2022/05/16 00:46:26;;;;;;;;;;;;;;;17.87;43.27;101717.88;5004704;28;97772;-66
2022/05/16 00:48:52;;;;;;;;;;;;;;;18.19;42.86;101721.56;4999867;28;99266;-65
2022/05/16 00:51:20;;;;;;;;;;;;;;;18.46;42.37;101728.16;5002478;28;98152;-66
2022/05/16 00:53:47;;;;;;;;;;;;;;;18.28;42.59;101719.28;5007818;28;96960;-66
2022/05/16 00:56:15;;;;;;;;;;;;;;;18.21;42.97;101722.34;5007337;28;97357;-66
2022/05/16 00:58:43;;;;;;;;;;;;;;;18.62;41.71;101720.22;5003444;28;98101;-66
2022/05/16 01:04:47;;;;;;;;;;;;;;;18.35;42.16;101718.97;5007188;28;99269;-66
2022/05/16 01:06:40;;;;;;;;;;;;;;;18.50;41.88;101729.75;5002559;28;96940;-66
2022/05/16 01:09:08;;;;;;;;;;;;;;;18.07;42.50;101724.88;4999624;28;119036;-66
2022/05/16 01:11:37;;;;;;;;;;;;;;;18.35;42.07;101719.84;5004341;28;98559;-65
2022/05/16 01:14:03;;;;;;;;;;;;;;;18.46;41.96;101722.81;4997689;28;97672;-66
2022/05/16 01:16:30;;;;;;;;;;;;;;;18.12;42.39;101722.81;5003061;28;97396;-66
2022/05/16 01:18:56;;;;;;;;;;;;;;;18.03;42.68;101725.97;5002693;28;101855;-66
2022/05/16 01:21:30;;;;;;;;;;;;;;;18.13;42.45;101721.88;5000961;28;98856;-66
2022/05/16 01:24:01;;;;;;;;;;;;;;;18.24;42.34;101719.53;5004357;28;97068;-65
2022/05/16 01:26:28;;;;;;;;;;;;;;;18.55;41.68;101716.09;5004440;28;96972;-65
2022/05/16 01:28:54;;;;;;;;;;;;;;;18.44;41.46;101716.69;5000600;28;99043;-65
2022/05/16 01:31:21;;;;;;;;;;;;;;;17.92;42.65;101707.78;5006257;28;98736;-65
2022/05/16 01:33:47;;;;;;;;;;;;;;;18.52;41.28;101709.09;5011887;28;98882;-66
2022/05/16 01:36:14;;;;;;;;;;;;;;;18.33;41.63;101708.34;5001427;28;96869;-64
2022/05/16 01:38:40;;;;;;;;;;;;;;;18.54;40.98;101709.88;5007428;28;99060;-67
2022/05/16 01:41:09;;;;;;;;;;;;;;;18.52;41.00;101708.22;5001181;28;99213;-66
2022/05/16 01:43:37;;;;;;;;;;;;;;;18.17;41.66;101710.09;5006227;28;96702;-66
2022/05/16 01:46:03;;;;;;;;;;;;;;;17.88;41.96;101707.09;5002494;28;96897;-66
2022/05/16 01:48:30;;;;;;;;;;;;;;;17.78;42.37;101711.19;5002450;28;99085;-66
2022/05/16 01:50:58;;;;;;;;;;;;;;;17.68;42.24;101715.25;5004780;28;99259;-66
2022/05/16 01:53:24;;;;;;;;;;;;;;;17.20;43.53;101709.59;4998904;28;96852;-73
2022/05/16 01:55:51;;;;;;;;;;;;;;;16.84;44.39;101698.84;5000193;28;98959;-71
2022/05/16 01:58:18;;;;;;;;;;;;;;;16.93;44.09;101693.94;5001612;28;97705;-72
2022/05/16 02:00:44;;;;;;;;;;;;;;;16.93;44.35;101693.94;4999342;28;97586;-71
2022/05/16 02:03:11;;;;;;;;;;;;;;;17.20;43.84;101694.41;5006795;28;96729;-72
2022/05/16 02:05:38;;;;;;;;;;;;;;;16.77;44.44;101690.25;5003748;28;96821;-73
2022/05/16 02:08:05;;;;;;;;;;;;;;;17.24;43.49;101690.69;5002536;28;98945;-73
2022/05/16 02:10:31;;;;;;;;;;;;;;;16.32;45.25;101688.72;5011067;28;99199;-74
2022/05/16 02:12:59;;;;;;;;;;;;;;;16.45;45.26;101693.50;5007960;28;97087;-72
2022/05/16 02:15:28;;;;;;;;;;;;;;;16.94;43.95;101678.78;5004133;28;97338;-75
2022/05/16 02:17:54;;;;;;;;;;;;;;;17.21;43.42;101682.81;5001275;28;99171;-68
2022/05/16 02:20:21;;;;;;;;;;;;;;;16.63;44.51;101679.34;5005619;28;99248;-67
2022/05/16 02:25:32;;;;;;;;;;;;;;;17.36;43.00;101686.53;5002689;28;96887;-70
2022/05/16 02:27:59;;;;;;;;;;;;;;;16.99;43.56;101680.31;5001670;28;101175;-65
2022/05/16 02:30:26;;;;;;;;;;;;;;;16.89;43.82;101667.44;5006189;28;98755;-66
2022/05/16 02:32:53;;;;;;;;;;;;;;;16.79;44.00;101679.50;5000459;28;97681;-66
2022/05/16 02:35:19;;;;;;;;;;;;;;;16.89;43.71;101679.00;5002775;28;96928;-67
2022/05/16 02:37:45;;;;;;;;;;;;;;;16.55;44.40;101674.31;5005353;28;99211;-68
2022/05/16 02:40:12;;;;;;;;;;;;;;;16.72;44.12;101670.94;5000362;28;98426;-67
2022/05/16 02:42:38;;;;;;;;;;;;;;;16.92;43.57;101661.97;5009047;28;96860;-66
2022/05/16 02:45:05;;;;;;;;;;;;;;;17.28;42.89;101667.34;5000142;28;99424;-66
2022/05/16 02:47:33;;;;;;;;;;;;;;;17.28;42.70;101656.66;5006221;28;100996;-65
2022/05/16 02:49:59;;;;;;;;;;;;;;;17.16;42.99;101655.47;5003832;28;99011;-67
2022/05/16 02:52:26;;;;;;;;;;;;;;;17.68;42.00;101658.25;5006195;28;97499;-66
2022/05/16 02:54:52;;;;;;;;;;;;;;;17.91;41.26;101656.16;5005264;28;96801;-65
2022/05/16 02:57:19;;;;;;;;;;;;;;;18.04;41.01;101647.50;5003948;28;98866;-65
2022/05/16 02:59:45;;;;;;;;;;;;;;;17.77;41.54;101658.66;5000277;28;99468;-66
2022/05/16 03:02:12;;;;;;;;;;;;;;;17.70;41.43;101665.25;4995528;28;96943;-65
2022/05/16 03:04:40;;;;;;;;;;;;;;;17.69;41.47;101647.50;5004923;28;97129;-65
2022/05/16 03:07:06;;;;;;;;;;;;;;;17.68;41.82;101656.44;5002124;27;99468;-66
2022/05/16 03:09:33;;;;;;;;;;;;;;;17.97;40.99;101646.94;5006251;28;99336;-71
2022/05/16 03:12:00;;;;;;;;;;;;;;;17.37;42.07;101643.72;5004561;28;96842;-70
2022/05/16 03:14:27;;;;;;;;;;;;;;;18.04;40.88;101650.16;5009736;28;97715;-71
2022/05/16 03:16:53;;;;;;;;;;;;;;;18.17;40.57;101644.09;5009349;28;98141;-70
2022/05/16 03:19:20;;;;;;;;;;;;;;;18.20;40.30;101643.91;5005107;28;98696;-72
2022/05/16 03:21:47;;;;;;;;;;;;;;;17.86;40.92;101650.16;5004573;28;96829;-72
2022/05/16 03:24:14;;;;;;;;;;;;;;;18.03;40.60;101651.09;5005793;28;98776;-72
2022/05/16 03:26:40;;;;;;;;;;;;;;;18.21;40.07;101644.78;5005216;28;98934;-72
2022/05/16 03:29:07;;;;;;;;;;;;;;;18.19;40.13;101650.19;5007660;28;97661;-71
2022/05/16 03:31:33;;;;;;;;;;;;;;;18.13;40.27;101638.97;5004867;28;99442;-71
2022/05/16 03:34:00;;;;;;;;;;;;;;;18.29;39.97;101646.13;5010011;28;96836;-73
2022/05/16 03:36:27;;;;;;;;;;;;;;;18.62;39.22;101643.47;5008472;28;97815;-72
2022/05/16 03:41:38;;;;;;;;;;;;;;;18.63;39.32;101634.47;5002641;28;96935;-71
2022/05/16 03:44:04;;;;;;;;;;;;;;;18.87;38.81;101629.56;5004648;28;97330;-72
2022/05/16 03:46:31;;;;;;;;;;;;;;;18.85;38.71;101633.28;5001873;28;98846;-66
2022/05/16 03:48:57;;;;;;;;;;;;;;;18.82;38.94;101628.97;5002635;28;99417;-67
2022/05/16 03:51:23;;;;;;;;;;;;;;;18.73;38.88;101628.59;5006918;28;97552;-66
2022/05/16 03:53:50;;;;;;;;;;;;;;;19.00;38.33;101625.25;5002686;28;96994;-66
2022/05/16 03:56:18;;;;;;;;;;;;;;;18.86;38.76;101626.97;4998419;28;99216;-73
2022/05/16 03:58:44;;;;;;;;;;;;;;;18.77;39.20;101627.50;5002279;28;99705;-71
2022/05/16 04:01:11;;;;;;;;;;;;;;;18.54;39.21;101634.94;4999915;28;97548;-72
2022/05/16 04:03:37;;;;;;;;;;;;;;;18.08;40.27;101635.69;5011774;28;98605;-71
2022/05/16 04:06:04;;;;;;;;;;;;;;;18.40;39.65;101634.81;5008002;28;99146;-72
2022/05/16 04:08:31;;;;;;;;;;;;;;;18.63;39.53;101634.47;5009133;28;99231;-71
2022/05/16 04:10:58;;;;;;;;;;;;;;;18.38;39.82;101641.22;5006919;28;97840;-73
2022/05/16 04:13:26;;;;;;;;;;;;;;;18.46;39.61;101631.81;5013101;28;96804;-72
2022/05/16 04:15:52;;;;;;;;;;;;;;;18.69;39.28;101623.44;4999982;28;98818;-71
2022/05/16 04:18:19;;;;;;;;;;;;;;;18.27;39.75;101631.06;5009291;28;99799;-65
2022/05/16 04:20:45;;;;;;;;;;;;;;;17.48;41.56;101633.38;5006814;28;96910;-66
2022/05/16 04:23:12;;;;;;;;;;;;;;;18.18;40.40;101626.25;5005369;28;97878;-66
2022/05/16 04:25:38;;;;;;;;;;;;;;;17.96;40.44;101636.31;5011317;28;101598;-65
2022/05/16 04:28:05;;;;;;;;;;;;;;;17.82;40.98;101635.22;5003724;28;98133;-66
2022/05/16 04:30:33;;;;;;;;;;;;;;;18.31;40.16;101630.81;5001788;28;96820;-66
2022/05/16 04:32:59;;;;;;;;;;;;;;;18.04;40.45;101637.66;5004106;28;97144;-65
2022/05/16 04:35:25;;;;;;;;;;;;;;;18.69;39.14;101628.78;5003241;28;101856;-65
2022/05/16 04:37:51;;;;;;;;;;;;;;;18.93;38.44;101634.56;5008868;28;98825;-67
2022/05/16 04:40:18;;;;;;;;;;;;;;;19.12;37.85;101631.72;5006296;28;96848;-65
2022/05/16 04:42:44;;;;;;;;;;;;;;;19.29;37.71;101631.63;5005863;28;96945;-65
2022/05/16 04:45:15;;;;;;;;;;;;;;;19.67;36.93;101634.78;5012723;28;97856;-66
2022/05/16 04:47:42;;;;;;;;;;;;;;;19.66;36.90;101637.53;5002189;28;98773;-65
2022/05/16 04:50:10;;;;;;;;;;;;;;;19.40;37.04;101631.88;5003597;28;96775;-65
2022/05/16 04:52:36;;;;;;;;;;;;;;;19.40;37.10;101626.50;5002155;28;96873;-66
2022/05/16 04:55:03;;;;;;;;;;;;;;;19.49;37.27;101625.97;5002347;28;98775;-66
2022/05/16 04:57:29;;;;;;;;;;;;;;;19.70;36.42;101628.34;5008380;28;99091;-65
2022/05/16 04:59:55;;;;;;;;;;;;;;;19.96;36.15;101635.69;5006234;28;97788;-64
2022/05/16 05:02:22;;;;;;;;;;;;;;;19.90;35.96;101633.38;5004433;28;97358;-65
2022/05/16 05:04:49;;;;;;;;;;;;;;;20.18;36.01;101622.72;5009966;28;98933;-71
2022/05/16 05:07:16;;;;;;;;;;;;;;;20.11;35.44;101623.16;5006272;28;99044;-72
2022/05/16 05:15:11;;;;;;;;;;;;;;;20.32;35.29;101616.47;4994877;28;98766;-65
2022/05/16 05:17:37;;;;;;;;;;;;;;;20.52;34.93;101615.25;4999604;28;97702;-65
2022/05/16 05:20:12;;;;;;;;;;;;;;;20.76;34.46;101618.19;5005920;28;97139;-66
2022/05/16 05:22:39;;;;;;;;;;;;;;;20.52;34.97;101621.50;5000588;28;96798;-66
2022/05/16 05:25:06;;;;;;;;;;;;;;;20.39;35.30;101622.38;5002468;28;101302;-66
2022/05/16 05:27:32;;;;;;;;;;;;;;;20.08;35.73;101629.59;5000833;28;97569;-65
2022/05/16 05:29:59;;;;;;;;;;;;;;;20.29;35.33;101628.25;5000227;28;96849;-65
2022/05/16 05:32:25;;;;;;;;;;;;;;;20.09;35.79;101619.72;5003916;28;97836;-66
2022/05/16 05:34:52;;;;;;;;;;;;;;;20.25;35.41;101624.06;5004209;28;98838;-66
2022/05/16 05:37:19;;;;;;;;;;;;;;;20.20;35.64;101628.84;5000047;28;99857;-66
2022/05/16 05:39:46;;;;;;;;;;;;;;;20.51;34.97;101627.81;5006463;28;96817;-66
2022/05/16 05:42:12;;;;;;;;;;;;;;;20.90;34.03;101624.41;5002317;28;96954;-65
2022/05/16 05:44:38;;;;;;;;;;;;;;;21.08;33.87;101639.34;5005562;28;100146;-66
2022/05/16 05:47:05;;;;;;;;;;;;;;;21.27;33.24;101630.09;5000744;28;98130;-65
2022/05/16 05:49:31;;;;;;;;;;;;;;;21.41;33.26;101635.41;5007357;28;96972;-66
2022/05/16 05:51:59;;;;;;;;;;;;;;;21.75;32.67;101640.25;5001848;28;96926;-66
2022/05/16 05:54:26;;;;;;;;;;;;;;;21.51;33.26;101641.06;5006983;28;98931;-67
2022/05/16 05:56:53;;;;;;;;;;;;;;;21.66;32.99;101631.97;5006628;28;98127;-67
2022/05/16 05:59:19;;;;;;;;;;;;;;;21.71;32.96;101629.81;5006298;28;96742;-66
2022/05/16 06:01:45;;;;;;;;;;;;;;;21.93;32.48;101621.97;5004346;28;97347;-66
2022/05/16 06:04:12;;;;;;;;;;;;;;;21.67;33.03;101630.97;5001018;28;98808;-65
2022/05/16 06:06:40;;;;;;;;;;;;;;;21.80;32.70;101623.78;5009491;28;98812;-65
2022/05/16 06:09:06;;;;;;;;;;;;;;;21.70;32.60;101631.63;5002672;28;98377;-65
2022/05/16 06:11:34;;;;;;;;;;;;;;;22.00;32.14;101633.22;5011669;28;97206;-66
2022/05/16 06:14:01;;;;;;;;;;;;;;;24.06;28.87;101623.31;5007974;28;98917;-66
2022/05/16 06:16:27;;;;;;;;;;;;;;;23.78;29.30;101616.47;5009988;28;97559;-66
2022/05/16 06:18:53;;;;;;;;;;;;;;;23.39;29.90;101614.97;5003451;28;96922;-66
2022/05/16 06:21:20;;;;;;;;;;;;;;;23.06;30.62;101617.47;5011531;28;96934;-66
2022/05/16 06:23:46;;;;;;;;;;;;;;;23.16;30.49;101620.38;4994994;28;98374;-67
2022/05/16 06:26:12;;;;;;;;;;;;;;;22.33;31.43;101630.84;4997116;28;101693;-67
2022/05/16 06:28:40;;;;;;;;;;;;;;;22.18;31.71;101635.50;4998991;28;97058;-66
2022/05/16 06:31:07;;;;;;;;;;;;;;;21.16;33.33;101621.88;5002282;28;97370;-67
2022/05/16 06:33:33;;;;;;;;;;;;;;;21.85;32.61;101625.22;4995231;28;100463;-70
2022/05/16 06:36:00;;;;;;;;;;;;;;;22.07;32.14;101632.69;5002747;28;98393;-68
2022/05/16 06:38:28;;;;;;;;;;;;;;;22.43;31.92;101633.78;4992733;28;98926;-68
2022/05/16 06:40:55;;;;;;;;;;;;;;;22.83;31.13;101629.09;5002120;28;97531;-69
2022/05/16 06:43:23;;;;;;;;;;;;;;;23.06;30.97;101636.34;4998412;28;101876;-69
2022/05/16 06:45:50;;;;;;;;;;;;;;;22.79;30.78;101628.44;5000115;28;99077;-69
2022/05/16 06:48:17;;;;;;;;;;;;;;;22.55;30.97;101630.19;5005565;28;96890;-68
2022/05/16 06:50:44;;;;;;;;;;;;;;;23.06;30.71;101636.34;5003849;28;96969;-68
2022/05/16 06:53:12;;;;;;;;;;;;;;;23.30;30.25;101628.28;5003352;28;101955;-70
2022/05/16 06:55:38;;;;;;;;;;;;;;;23.72;29.57;101632.28;4996210;28;99284;-72
2022/05/16 06:58:04;;;;;;;;;;;;;;;23.89;29.47;101625.59;5000233;28;98032;-74
2022/05/16 07:00:31;;;;;;;;;;;;;;;23.78;29.19;101629.97;5003995;28;97560;-72
2022/05/16 07:02:58;;;;;;;;;;;;;;;23.80;29.11;101635.25;5007379;28;99326;-65
2022/05/16 07:05:25;;;;;;;;;;;;;;;24.48;28.27;101627.16;4996969;28;101772;-66
2022/05/16 07:07:52;;;;;;;;;;;;;;;24.50;28.46;101632.47;5001489;28;97151;-66
2022/05/16 07:10:18;;;;;;;;;;;;;;;24.28;28.79;101627.91;5004195;28;97023;-66
2022/05/16 07:12:45;;;;;;;;;;;;;;;24.47;28.27;101630.88;5000523;28;98879;-67
2022/05/16 07:15:13;;;;;;;;;;;;;;;25.02;27.65;101624.56;4998425;28;99097;-67
2022/05/16 07:17:40;;;;;;;;;;;;;;;24.88;28.08;101630.22;5001236;28;97220;-66
2022/05/16 07:20:08;;;;;;;;;;;;;;;24.71;28.13;101629.88;4998545;28;96877;-67
2022/05/16 07:22:34;;;;;;;;;;;;;;;24.09;28.91;101633.84;5004874;28;99011;-66
2022/05/16 07:25:00;;;;;;;;;;;;;;;23.41;29.76;101620.25;5005992;28;98041;-66
2022/05/16 07:30:12;;;;;;;;;;;;;;;24.03;29.29;101620.84;5000032;28;96808;-67
2022/05/16 07:32:41;;;;;;;;;;;;;;;24.37;28.59;101615.50;5002558;28;99135;-66
2022/05/16 07:35:13;;;;;;;;;;;;;;;24.37;28.58;101616.38;5002302;28;99315;-68
2022/05/16 07:37:40;;;;;;;;;;;;;;;23.87;29.58;101622.16;5003909;28;97214;-67
2022/05/16 07:40:08;;;;;;;;;;;;;;;24.42;28.48;101614.16;5000638;28;96811;-65
2022/05/16 07:42:34;;;;;;;;;;;;;;;24.77;28.14;101619.44;4998990;28;101497;-65
2022/05/16 07:45:01;;;;;;;;;;;;;;;24.55;28.56;101627.53;5005720;28;99218;-67
2022/05/16 07:47:29;;;;;;;;;;;;;;;25.21;27.88;101623.03;5005245;28;97264;-66
2022/05/16 07:49:56;;;;;;;;;;;;;;;25.46;27.57;101622.75;5002725;28;97317;-66
2022/05/16 07:52:24;;;;;;;;;;;;;;;24.38;28.60;101620.78;5001670;28;97942;-67
2022/05/16 07:54:51;;;;;;;;;;;;;;;24.36;28.80;101621.88;5001281;28;99181;-67
2022/05/16 07:57:17;;;;;;;;;;;;;;;24.46;28.87;101625.59;5000119;28;97377;-65
2022/05/16 07:59:44;;;;;;;;;;;;;;;24.88;28.10;101627.50;5007103;28;97682;-66
2022/05/16 08:02:12;;;;;;;;;;;;;;;24.47;28.21;101621.91;4999975;28;97794;-66
2022/05/16 08:04:38;;;;;;;;;;;;;;;25.04;27.66;101623.59;4997808;28;99732;-66
2022/05/16 08:07:05;;;;;;;;;;;;;;;25.13;27.69;101621.00;5003979;28;97800;-66
2022/05/16 08:12:22;;;;;;;;;;;;;;;25.52;27.28;101622.22;5003369;28;97388;-65
2022/05/16 08:14:48;;;;;;;;;;;;;;;25.53;27.15;101614.97;5000650;28;99176;-66
2022/05/16 08:17:15;;;;;;;;;;;;;;;25.66;26.72;101612.97;4999404;28;97028;-67
2022/05/16 08:19:41;;;;;;;;;;;;;;;25.51;27.43;101611.50;5001821;28;96755;-66
2022/05/16 08:22:07;;;;;;;;;;;;;;;25.55;27.53;101616.53;5000216;28;99486;-66
2022/05/16 08:24:35;;;;;;;;;;;;;;;25.45;27.46;101604.78;4997870;28;99950;-67
2022/05/16 08:27:02;;;;;;;;;;;;;;;26.22;26.56;101602.63;4996183;28;97291;-67
2022/05/16 08:29:29;;;;;;;;;;;;;;;25.83;27.29;101601.53;4999798;28;97639;-67
2022/05/16 08:31:55;;;;;;;;;;;;;;;26.21;26.88;101606.31;4997352;28;99013;-67
2022/05/16 08:34:22;;;;;;;;;;;;;;;24.73;27.95;101590.94;5004028;28;99767;-67
2022/05/16 08:42:17;;;;;;;;;;;;;;;25.51;27.32;101600.69;5002551;28;97154;-68
2022/05/16 08:44:55;;;;;;;;;;;;;;;25.61;27.05;101598.94;5001272;28;98378;-66
2022/05/16 08:47:26;;;;;;;;;;;;;;;25.18;27.83;101598.97;5000795;28;97028;-67
2022/05/16 08:49:54;;;;;;;;;;;;;;;25.69;26.95;101597.31;5006803;28;96828;-66
2022/05/16 08:52:27;;;;;;;;;;;;;;;25.87;26.23;101591.28;4999777;28;99260;-67
2022/05/16 08:54:57;;;;;;;;;;;;;;;26.38;25.68;101589.47;4999969;28;101688;-66
2022/05/16 08:57:31;;;;;;;;;;;;;;;25.34;27.45;101596.69;4997612;28;96734;-67
2022/05/16 09:00:01;;;;;;;;;;;;;;;26.05;26.71;101585.16;4999624;28;97317;-66
2022/05/16 09:02:30;;;;;;;;;;;;;;;24.92;27.61;101590.31;4998505;28;99782;-67
2022/05/16 09:04:59;;;;;;;;;;;;;;;25.54;27.44;101595.88;4999349;28;98724;-66
2022/05/16 09:07:29;;;;;;;;;;;;;;;26.12;26.82;101594.44;5004175;28;96877;-67
2022/05/16 09:09:58;;;;;;;;;;;;;;;26.03;26.39;101588.97;5007007;28;96970;-67
2022/05/16 09:12:28;;;;;;;;;;;;;;;26.26;25.85;101586.97;5007351;28;98554;-66
2022/05/16 09:15:01;;;;;;;;;;;;;;;26.58;25.90;101580.41;5003105;28;98797;-65
2022/05/16 09:17:32;;;;;;;;;;;;;;;26.66;25.48;101581.56;5004862;28;97721;-66
2022/05/16 09:20:14;;;;;;;;;;;;;;;26.93;25.14;101584.53;5005331;28;97094;-67
2022/05/16 09:22:45;;;;;;;;;;;;;;;26.88;25.05;101575.94;5009615;28;97712;-67
2022/05/16 09:25:14;;;;;;;;;;;;;;;27.13;25.05;101570.00;5001478;28;98778;-67
2022/05/16 09:30:30;;;;;;;;;;;;;;;26.56;25.44;101560.75;5007424;28;96987;-67
2022/05/16 09:33:00;;;;;;;;;;;;;;;26.87;25.12;101552.53;5009438;28;99000;-66
2022/05/16 09:35:30;;;;;;;;;;;;;;;26.42;25.96;101552.13;4991686;28;98715;-66
2022/05/16 09:37:58;;;;;;;;;;;;;;;27.16;24.78;101553.47;5002075;28;97249;-67
2022/05/16 09:40:25;;;;;;;;;;;;;;;27.30;24.97;101541.31;5000167;28;97570;-66
2022/05/16 09:42:53;;;;;;;;;;;;;;;27.02;24.95;101553.00;5007884;28;99474;-66
2022/05/16 09:45:22;;;;;;;;;;;;;;;26.57;25.32;101551.63;5002114;28;98507;-68
2022/05/16 09:47:48;;;;;;;;;;;;;;;26.46;25.27;101548.13;4990415;28;97559;-67
2022/05/16 09:50:20;;;;;;;;;;;;;;;26.16;25.48;101543.56;5006818;28;96841;-67
2022/05/16 09:52:48;;;;;;;;;;;;;;;26.00;25.63;101535.94;5002405;28;99162;-67
2022/05/16 09:55:24;;;;;;;;;;;;;;;26.08;25.64;101543.38;5003840;28;100053;-67
2022/05/16 09:57:51;;;;;;;;;;;;;;;25.79;25.53;101541.41;5002464;28;97608;-66
2022/05/16 10:00:22;;;;;;;;;;;;;;;25.77;25.62;101540.66;5005992;28;99945;-67
2022/05/16 10:02:55;;;;;;;;;;;;;;;26.53;24.90;101543.88;5003333;28;99453;-67
2022/05/16 10:05:23;;;;;;;;;;;;;;;26.09;25.44;101550.53;5006548;28;98709;-67
2022/05/16 10:07:51;;;;;;;;;;;;;;;26.12;25.55;101548.38;5002743;28;97137;-66
2022/05/16 10:10:19;;;;;;;;;;;;;;;25.92;25.36;101543.91;5007566;28;97250;-68
2022/05/16 10:12:46;;;;;;;;;;;;;;;26.15;24.59;101556.25;5002864;28;99482;-67
2022/05/16 10:15:13;;;;;;;;;;;;;;;26.37;23.56;101544.41;5006485;28;98525;-67
2022/05/16 10:17:42;;;;;;;;;;;;;;;26.58;23.76;101545.16;4999353;28;96925;-67
2022/05/16 10:20:12;;;;;;;;;;;;;;;26.66;23.95;101543.63;5004474;28;97348;-67
2022/05/16 10:22:38;;;;;;;;;;;;;;;26.88;23.81;101537.97;5006288;28;102286;-67
2022/05/16 10:25:06;;;;;;;;;;;;;;;26.84;23.62;101528.41;5005739;28;98742;-67
2022/05/16 10:27:35;;;;;;;;;;;;;;;26.76;24.24;101528.25;5006930;28;97559;-67
2022/05/16 10:30:07;;;;;;;;;;;;;;;26.94;23.72;101522.03;5006013;28;96851;-68
2022/05/16 10:35:22;;;;;;;;;;;;;;;26.29;24.01;101516.28;4999518;28;97294;-67
2022/05/16 10:37:50;;;;;;;;;;;;;;;26.20;24.48;101517.91;5002543;28;96814;-67
2022/05/16 10:40:21;;;;;;;;;;;;;;;25.96;24.54;101518.25;5005399;28;96876;-67
2022/05/16 10:42:50;;;;;;;;;;;;;;;26.29;24.20;101514.44;5001491;28;98800;-66
2022/05/16 10:45:18;;;;;;;;;;;;;;;26.35;24.13;101508.47;5003166;28;98763;-67
2022/05/16 10:47:47;;;;;;;;;;;;;;;25.64;24.50;101512.94;5006367;28;96954;-67
2022/05/16 10:50:17;;;;;;;;;;;;;;;26.22;24.51;101501.53;5002903;28;97261;-66
2022/05/16 10:52:46;;;;;;;;;;;;;;;26.63;23.91;101501.41;4999063;28;98898;-66
2022/05/16 10:55:13;;;;;;;;;;;;;;;26.74;23.42;101501.28;5005842;28;99310;-66
2022/05/16 10:57:45;;;;;;;;;;;;;;;26.31;23.67;101501.63;5000795;28;97220;-66
2022/05/16 11:00:14;;;;;;;;;;;;;;;26.34;23.32;101484.22;5006584;28;96958;-69
2022/05/16 11:03:10;;;;;;;;;;;;;;;26.49;23.17;101494.53;5004429;28;99125;-66
2022/05/16 11:05:42;;;;;;;;;;;;;;;26.81;23.31;101485.31;5003083;28;98941;-69
2022/05/16 11:08:13;;;;;;;;;;;;;;;26.69;22.92;101481.00;5005404;28;97297;-68
2022/05/16 11:10:44;;;;;;;;;;;;;;;26.61;23.18;101481.72;5002380;28;96970;-67
2022/05/16 11:13:20;;;;;;;;;;;;;;;27.30;22.32;101484.34;5003013;28;99505;-67
2022/05/16 11:15:52;;;;;;;;;;;;;;;27.26;22.26;101478.31;4997992;28;98886;-66
2022/05/16 11:18:25;;;;;;;;;;;;;;;27.65;22.52;101473.72;5001722;28;97154;-67
2022/05/16 11:20:54;;;;;;;;;;;;;;;27.46;22.31;101478.28;5003707;28;96937;-67
2022/05/16 11:23:25;;;;;;;;;;;;;;;26.69;22.54;101472.88;5006513;28;98047;-66
2022/05/16 11:25:55;;;;;;;;;;;;;;;26.72;22.59;101473.44;4999674;28;98962;-66
2022/05/16 11:28:23;;;;;;;;;;;;;;;27.46;22.09;101468.28;5000317;28;99301;-66
2022/05/16 11:30:52;;;;;;;;;;;;;;;27.50;22.43;101474.31;5008486;28;97224;-66
2022/05/16 11:33:24;;;;;;;;;;;;;;;26.79;22.85;101465.59;5002044;28;98224;-66
2022/05/16 11:35:51;;;;;;;;;;;;;;;27.05;22.73;101466.78;5005517;28;99030;-67
2022/05/16 11:38:29;;;;;;;;;;;;;;;27.28;22.02;101473.63;5004971;28;97638;-67
2022/05/16 11:41:00;;;;;;;;;;;;;;;27.30;22.17;101466.22;5008259;28;97058;-67
2022/05/16 11:43:28;;;;;;;;;;;;;;;27.49;22.11;101467.16;5011566;28;101546;-67
2022/05/16 11:46:11;;;;;;;;;;;;;;;27.71;21.91;101466.84;5009117;28;98785;-70
2022/05/16 11:48:44;;;;;;;;;;;;;;;27.95;21.30;101464.47;5001266;28;97669;-67
2022/05/16 11:51:17;;;;;;;;;;;;;;;27.48;21.51;101454.59;5006989;28;98135;-68
2022/05/16 11:53:48;;;;;;;;;;;;;;;27.60;21.56;101462.44;5003089;28;99148;-67
2022/05/16 12:02:15;;;;;;;;;;;;;;;27.96;21.72;101443.59;5005408;28;96828;-67
2022/05/16 12:04:43;;;;;;;;;;;;;;;27.83;21.57;101443.91;5007893;28;101685;-67
2022/05/16 12:07:15;;;;;;;;;;;;;;;27.93;21.35;101439.31;5008819;28;97578;-69
2022/05/16 12:09:52;;;;;;;;;;;;;;;27.84;21.19;101439.34;5009546;28;96821;-66
2022/05/16 12:12:28;;;;;;;;;;;;;;;27.24;21.47;101428.78;5008404;28;97332;-67
2022/05/16 12:15:11;;;;;;;;;;;;;;;26.95;21.84;101430.69;5004728;28;98839;-67
2022/05/16 12:17:38;;;;;;;;;;;;;;;26.84;21.87;101428.09;5003343;28;99137;-67
2022/05/16 12:20:09;;;;;;;;;;;;;;;27.30;21.76;101430.94;5007376;28;96779;-68
2022/05/16 12:22:46;;;;;;;;;;;;;;;27.96;20.75;101425.41;5010172;28;97356;-67
2022/05/16 12:25:27;;;;;;;;;;;;;;;27.70;20.89;101430.69;5008718;28;98941;-67
2022/05/16 12:28:16;;;;;;;;;;;;;;;28.45;19.89;101426.88;5002704;28;97525;-67
2022/05/16 12:30:47;;;;;;;;;;;;;;;28.84;19.46;101413.88;5007877;28;96860;-66
2022/05/16 12:33:29;;;;;;;;;;;;;;;28.46;19.68;101414.16;5005428;28;96758;-68
2022/05/16 12:35:56;;;;;;;;;;;;;;;28.05;20.15;101407.38;5003472;28;98977;-67
2022/05/16 12:38:23;;;;;;;;;;;;;;;28.59;20.05;101416.50;5004350;28;101224;-66
2022/05/16 12:41:10;;;;;;;;;;;;;;;28.40;19.94;101409.34;5003650;28;96786;-67
2022/05/16 12:43:44;;;;;;;;;;;;;;;28.49;20.03;101409.25;5002199;28;97169;-67
2022/05/16 12:46:16;;;;;;;;;;;;;;;28.61;19.86;101396.31;5002233;28;98224;-67
2022/05/16 12:48:45;;;;;;;;;;;;;;;28.95;20.08;101392.91;5006850;28;99323;-68
2022/05/16 12:51:36;;;;;;;;;;;;;;;28.47;20.12;101394.13;5010800;28;96830;-66
2022/05/16 12:54:23;;;;;;;;;;;;;;;28.66;19.61;101396.69;4986326;28;97612;-67
2022/05/16 12:56:50;;;;;;;;;;;;;;;28.73;19.92;101384.19;5003024;28;103005;-68
2022/05/16 12:59:26;;;;;;;;;;;;;;;29.04;19.23;101376.47;4998489;28;99344;-74
2022/05/16 13:02:01;;;;;;;;;;;;;;;29.45;19.25;101383.06;5006563;28;97588;-73
2022/05/16 13:04:33;;;;;;;;;;;;;;;29.55;18.41;101375.63;5008084;28;97029;-74
2022/05/16 13:07:03;;;;;;;;;;;;;;;29.93;18.33;101374.28;5000554;28;97697;-73
2022/05/16 13:09:38;;;;;;;;;;;;;;;29.80;18.30;101367.59;5006268;28;98845;-72
2022/05/16 13:12:08;;;;;;;;;;;;;;;30.38;17.68;101373.06;5006683;28;96994;-73
2022/05/16 13:14:44;;;;;;;;;;;;;;;30.62;18.10;101364.94;5010225;28;96899;-72
2022/05/16 13:17:11;;;;;;;;;;;;;;;31.01;17.04;101373.28;5006581;28;99242;-73
2022/05/16 13:19:43;;;;;;;;;;;;;;;31.21;16.56;101362.88;5004380;28;101964;-73